createdAt,value
2023-05-05T00:05:07.512Z,3.08
2023-05-05T00:16:09.036Z,3.07
2023-05-05T00:27:10.138Z,3.07
2023-05-05T00:38:10.187Z,3.07
2023-05-05T00:49:09.996Z,3.07
2023-05-05T01:00:11.554Z,3.06
2023-05-05T01:11:09.525Z,3.06
2023-05-05T01:22:01.731Z,3.05
2023-05-05T01:33:02.217Z,3.05
2023-05-05T01:44:00.528Z,3.05
2023-05-05T01:55:00.889Z,3.04
2023-05-05T02:05:57.193Z,3.04
2023-05-05T02:16:58.608Z,3.04
2023-05-05T02:27:56.876Z,3.03
2023-05-05T02:38:55.206Z,3.03
2023-05-05T02:49:50.582Z,3.02
2023-05-05T03:00:53.125Z,3.02
2023-05-05T03:11:47.227Z,3.02
2023-05-05T03:22:46.176Z,3.01
2023-05-05T03:33:44.641Z,3.00
2023-05-05T03:44:45.974Z,3.00
2023-05-05T03:55:45.016Z,3.00
2023-05-05T04:06:23.563Z,2.99
2023-05-05T04:17:03.242Z,2.99
2023-05-05T04:28:01.208Z,3.00
2023-05-05T04:38:59.877Z,3.01
2023-05-05T04:49:54.695Z,3.02
2023-05-05T05:00:51.083Z,3.04
2023-05-05T05:11:47.185Z,3.05
2023-05-05T05:22:46.720Z,3.09
2023-05-05T05:33:46.547Z,3.13
2023-05-05T05:44:40.955Z,3.15
2023-05-05T05:55:41.354Z,3.18
2023-05-05T06:06:36.809Z,3.22
2023-05-05T06:17:37.003Z,3.24
2023-05-05T06:28:35.196Z,3.26
2023-05-05T06:39:36.174Z,3.28
2023-05-05T06:50:33.988Z,3.29
2023-05-05T07:01:24.101Z,3.30
2023-05-05T07:11:59.899Z,3.31
2023-05-05T07:22:41.638Z,3.32
2023-05-05T07:33:17.193Z,3.33
2023-05-05T07:44:17.862Z,3.34
2023-05-05T07:55:16.670Z,3.36
2023-05-05T08:06:17.340Z,3.37
2023-05-05T08:17:12.204Z,3.35
2023-05-05T08:28:02.591Z,3.38
2023-05-05T08:39:01.859Z,3.34
2023-05-05T08:50:01.496Z,3.34
2023-05-05T09:00:58.639Z,3.34
2023-05-05T09:11:58.955Z,3.34
2023-05-05T09:22:58.740Z,3.34
2023-05-05T09:33:56.661Z,3.35
2023-05-05T09:44:54.377Z,3.34
2023-05-05T09:55:49.345Z,3.34
2023-05-05T10:06:22.804Z,3.35
2023-05-05T10:17:10.058Z,3.36
2023-05-05T10:27:53.549Z,3.34
2023-05-05T10:38:44.419Z,3.36
2023-05-05T10:49:31.012Z,3.36
2023-05-05T11:00:29.191Z,3.36
2023-05-05T11:11:17.407Z,3.36
2023-05-05T11:22:13.451Z,3.36
2023-05-05T11:33:02.237Z,3.43
2023-05-05T11:44:04.775Z,3.34
2023-05-05T11:55:05.654Z,3.35
2023-05-05T12:06:05.635Z,3.35
2023-05-05T12:17:06.178Z,3.36
2023-05-05T12:28:04.675Z,3.36
2023-05-05T12:39:04.776Z,3.36
2023-05-05T12:50:05.120Z,3.36
2023-05-05T13:01:06.170Z,3.36
2023-05-05T13:12:06.204Z,3.37
2023-05-05T13:23:02.961Z,3.37
2023-05-05T13:34:02.348Z,3.37
2023-05-05T13:45:03.570Z,3.36
2023-05-05T13:55:39.066Z,3.36
2023-05-05T14:06:39.469Z,3.36
2023-05-05T14:17:36.615Z,3.36
2023-05-05T14:28:33.601Z,3.36
2023-05-05T14:39:06.411Z,3.36
2023-05-05T14:49:54.252Z,3.37
2023-05-05T15:00:43.795Z,3.36
2023-05-05T15:11:27.054Z,3.37
2023-05-05T15:22:09.522Z,3.37
2023-05-05T15:32:51.039Z,3.37
2023-05-05T15:43:33.399Z,3.37
2023-05-05T15:54:15.903Z,3.37
2023-05-05T16:05:02.836Z,3.37
2023-05-05T16:15:51.589Z,3.37
2023-05-05T16:26:45.752Z,3.37
2023-05-05T16:37:38.128Z,3.37
2023-05-05T16:48:28.570Z,3.37
2023-05-05T16:59:20.239Z,3.38
2023-05-05T17:10:10.585Z,3.39
2023-05-05T17:21:04.399Z,3.39
2023-05-05T17:31:54.505Z,3.36
2023-05-05T17:42:47.027Z,3.34
2023-05-05T17:53:21.001Z,3.33
2023-05-05T18:04:07.595Z,3.32
2023-05-05T18:14:58.998Z,3.30
2023-05-05T18:25:57.318Z,3.30
2023-05-05T18:36:56.703Z,3.29
2023-05-05T18:47:55.492Z,3.29
2023-05-05T18:58:45.050Z,3.28
2023-05-05T19:09:19.042Z,3.26
2023-05-05T19:20:14.845Z,3.26
2023-05-05T19:31:06.125Z,3.25
2023-05-05T19:41:51.522Z,3.24
2023-05-05T19:52:51.594Z,3.24
2023-05-05T20:03:48.525Z,3.23
2023-05-05T20:14:36.990Z,3.22
2023-05-05T20:25:30.619Z,3.22
2023-05-05T20:36:24.890Z,3.21
2023-05-05T20:47:23.510Z,3.21
2023-05-05T20:58:18.123Z,3.20
2023-05-05T21:09:17.264Z,3.19
2023-05-05T21:20:04.494Z,3.19
2023-05-05T21:31:04.975Z,3.18
2023-05-05T21:41:45.736Z,3.18
2023-05-05T21:52:44.383Z,3.17
2023-05-05T22:03:42.023Z,3.17
2023-05-05T22:14:36.178Z,3.17
2023-05-05T22:25:35.187Z,3.16
2023-05-05T22:36:24.715Z,3.15
2023-05-05T22:47:00.331Z,3.14
2023-05-05T22:57:55.482Z,3.14
2023-05-05T23:08:41.655Z,3.14
2023-05-05T23:19:36.068Z,3.13
2023-05-05T23:30:30.577Z,3.13
2023-05-05T23:41:22.751Z,3.13
2023-05-05T23:52:21.104Z,3.12
